createdAt,value
2019-03-23T00:00:07.860Z,148.87
2019-03-23T00:02:39.697Z,146.98
2019-03-23T00:05:10.359Z,150.82
2019-03-23T00:07:40.693Z,156.65
2019-03-23T00:10:11.180Z,161.32
2019-03-23T00:12:43.033Z,167.18
2019-03-23T00:15:15.199Z,168.87
2019-03-23T00:17:45.521Z,165.22
2019-03-23T00:20:15.808Z,169.40
2019-03-23T00:22:47.614Z,185.70
2019-03-23T00:25:17.958Z,179.27
2019-03-23T00:27:48.363Z,179.75
2019-03-23T00:30:18.820Z,188.00
2019-03-23T00:32:49.196Z,185.73
2019-03-23T00:35:20.796Z,182.40
2019-03-23T00:37:51.218Z,190.82
2019-03-23T00:40:21.653Z,183.65
2019-03-23T00:42:52.410Z,190.30
2019-03-23T00:45:22.656Z,196.50
2019-03-23T00:47:52.978Z,188.93
2019-03-23T00:50:23.203Z,181.30
2019-03-23T00:52:53.541Z,187.20
2019-03-23T00:55:23.800Z,169.37
2019-03-23T00:57:54.106Z,182.62
2019-03-23T01:00:24.390Z,183.22
2019-03-23T01:02:54.736Z,165.15
2019-03-23T01:05:25.019Z,180.97
2019-03-23T01:07:55.320Z,174.35
2019-03-23T01:10:25.580Z,164.55
2019-03-23T01:12:55.824Z,173.82
2019-03-23T01:15:27.014Z,167.13
2019-03-23T01:17:57.366Z,173.13
2019-03-23T01:20:27.647Z,174.35
2019-03-23T01:22:58.299Z,166.82
2019-03-23T01:25:28.566Z,177.90
2019-03-23T01:27:58.944Z,171.65
2019-03-23T01:30:29.228Z,172.78
2019-03-23T01:32:59.482Z,163.60
2019-03-23T01:35:30.321Z,171.53
2019-03-23T01:38:00.735Z,169.22
2019-03-23T01:40:31.090Z,169.28
2019-03-23T01:43:01.364Z,165.35
2019-03-23T01:45:32.582Z,159.40
2019-03-23T01:48:02.917Z,162.15
2019-03-23T01:50:33.231Z,155.87
2019-03-23T01:53:03.453Z,160.15
2019-03-23T01:55:33.677Z,163.32
2019-03-23T01:58:03.990Z,153.35
2019-03-23T02:00:34.301Z,151.50
2019-03-23T02:03:04.913Z,151.45
2019-03-23T02:05:35.229Z,158.47
2019-03-23T02:08:05.519Z,157.82
2019-03-23T02:10:35.787Z,156.10
2019-03-23T02:13:06.099Z,153.97
2019-03-23T02:15:37.541Z,149.25
2019-03-23T02:18:07.919Z,146.55
2019-03-23T02:20:38.185Z,145.62
2019-03-23T02:23:08.494Z,145.02
2019-03-23T02:25:38.769Z,141.95
2019-03-23T02:28:09.099Z,150.03
2019-03-23T02:30:39.392Z,152.55
2019-03-23T02:33:09.697Z,140.07
2019-03-23T02:35:39.912Z,148.90
2019-03-23T02:38:10.245Z,141.37
2019-03-23T02:40:41.444Z,151.72
2019-03-23T02:43:13.213Z,139.72
2019-03-23T02:45:43.486Z,138.37
2019-03-23T02:48:13.830Z,135.55
2019-03-23T02:50:44.231Z,153.00
2019-03-23T02:53:14.488Z,146.45
2019-03-23T02:55:44.766Z,144.93
2019-03-23T02:58:15.078Z,153.00
2019-03-23T03:00:45.373Z,155.60
2019-03-23T03:03:15.673Z,164.57
2019-03-23T03:05:45.906Z,148.82
2019-03-23T03:08:16.149Z,151.70
2019-03-23T03:10:46.425Z,144.20
2019-03-23T03:13:16.662Z,145.30
2019-03-23T03:15:47.078Z,141.77
2019-03-23T03:18:17.398Z,152.10
2019-03-23T03:20:47.682Z,147.02
2019-03-23T03:23:17.978Z,136.07
2019-03-23T03:25:48.263Z,145.97
2019-03-23T03:28:18.500Z,152.25
2019-03-23T03:30:48.763Z,150.07
2019-03-23T03:33:19.076Z,144.75
2019-03-23T03:35:49.355Z,142.90
2019-03-23T03:38:19.604Z,141.35
2019-03-23T03:40:49.901Z,138.52
2019-03-23T03:43:20.220Z,145.32
2019-03-23T03:45:50.516Z,141.65
2019-03-23T03:48:20.811Z,134.67
2019-03-23T03:50:51.178Z,135.75
2019-03-23T03:53:21.849Z,127.05
2019-03-23T03:55:52.062Z,137.75
2019-03-23T03:58:22.386Z,142.13
2019-03-23T04:00:52.673Z,139.30
2019-03-23T04:03:22.907Z,144.17
2019-03-23T04:05:53.177Z,146.62
2019-03-23T04:08:23.475Z,134.55
2019-03-23T04:10:53.750Z,147.80
2019-03-23T04:13:23.993Z,139.05
2019-03-23T04:15:54.358Z,142.43
2019-03-23T04:18:24.702Z,139.10
2019-03-23T04:20:54.987Z,140.50
2019-03-23T04:23:25.306Z,143.32
2019-03-23T04:25:55.524Z,144.22
2019-03-23T04:28:26.162Z,137.00
2019-03-23T04:30:56.499Z,135.80
2019-03-23T04:33:26.885Z,136.18
2019-03-23T04:35:57.151Z,138.32
2019-03-23T04:38:27.439Z,146.47
2019-03-23T04:40:57.664Z,138.75
2019-03-23T04:43:27.995Z,145.82
2019-03-23T04:45:58.267Z,140.22
2019-03-23T04:48:28.573Z,142.45
2019-03-23T04:50:58.848Z,138.05
2019-03-23T04:53:29.223Z,138.22
2019-03-23T04:55:59.507Z,151.32
2019-03-23T04:58:30.868Z,154.23
2019-03-23T05:01:01.140Z,146.62
2019-03-23T05:03:37.784Z,150.57
2019-03-23T05:06:08.008Z,170.05
2019-03-23T05:08:38.356Z,169.07
2019-03-23T05:11:08.588Z,168.72
2019-03-23T05:13:38.877Z,164.65
2019-03-23T05:16:10.760Z,162.47
2019-03-23T05:18:41.245Z,158.90
2019-03-23T05:21:11.538Z,166.80
2019-03-23T05:23:42.408Z,157.52
2019-03-23T05:26:12.699Z,156.50
2019-03-23T05:28:43.048Z,160.00
2019-03-23T05:31:13.319Z,154.15
2019-03-23T05:33:43.706Z,143.85
2019-03-23T05:36:15.334Z,146.82
2019-03-23T05:38:45.852Z,152.50
2019-03-23T05:41:16.131Z,160.10
2019-03-23T05:43:47.556Z,153.32
2019-03-23T05:46:17.819Z,157.05
2019-03-23T05:48:48.187Z,161.22
2019-03-23T05:51:18.469Z,166.60
2019-03-23T05:53:49.923Z,152.68
2019-03-23T05:56:20.152Z,170.35
2019-03-23T05:58:50.587Z,166.97
2019-03-23T06:01:20.868Z,154.38
2019-03-23T06:03:51.235Z,162.12
2019-03-23T06:06:21.509Z,158.30
2019-03-23T06:08:55.287Z,157.00
2019-03-23T06:11:24.213Z,162.22
2019-03-23T06:13:54.850Z,162.27
2019-03-23T06:16:25.113Z,150.00
2019-03-23T06:18:55.488Z,170.05
2019-03-23T06:21:26.169Z,159.75
2019-03-23T06:23:56.560Z,168.95
2019-03-23T06:26:26.874Z,162.68
2019-03-23T06:28:57.658Z,161.65
2019-03-23T06:31:27.888Z,167.98
2019-03-23T06:33:58.087Z,164.43
2019-03-23T06:36:28.332Z,163.80
2019-03-23T06:39:05.497Z,171.95
2019-03-23T06:41:30.487Z,174.50
2019-03-23T06:44:00.688Z,189.10
2019-03-23T06:46:31.006Z,181.05
2019-03-23T06:49:01.284Z,175.47
2019-03-23T06:51:35.292Z,177.60
2019-03-23T06:54:05.571Z,172.47
2019-03-23T06:56:35.865Z,164.13
2019-03-23T06:59:06.137Z,164.32
2019-03-23T07:01:36.434Z,166.80
2019-03-23T07:04:08.035Z,157.82
2019-03-23T07:06:38.380Z,168.95
2019-03-23T07:09:16.164Z,166.20
2019-03-23T07:11:41.871Z,159.78
2019-03-23T07:14:12.187Z,171.57
2019-03-23T07:16:43.439Z,160.97
2019-03-23T07:19:13.707Z,150.97
2019-03-23T07:21:43.968Z,161.77
2019-03-23T07:24:14.722Z,165.77
2019-03-23T07:26:45.056Z,155.90
2019-03-23T07:29:15.359Z,163.18
2019-03-23T07:31:46.296Z,157.37
2019-03-23T07:34:16.516Z,161.22
2019-03-23T07:36:46.836Z,154.70
2019-03-23T07:39:26.942Z,145.22
2019-03-23T07:41:49.954Z,144.47
2019-03-23T07:44:20.229Z,140.22
2019-03-23T07:46:51.556Z,134.35
2019-03-23T07:49:21.837Z,140.77
2019-03-23T07:51:52.176Z,132.63
2019-03-23T07:54:22.392Z,133.43
2019-03-23T07:56:52.614Z,133.80
2019-03-23T07:59:22.879Z,120.42
2019-03-23T08:01:53.196Z,123.58
2019-03-23T08:04:23.489Z,117.47
2019-03-23T08:06:53.814Z,120.77
2019-03-23T08:09:24.088Z,115.92
2019-03-23T08:11:54.398Z,116.62
2019-03-23T08:14:24.684Z,116.12
2019-03-23T08:16:54.959Z,119.97
2019-03-23T08:19:25.270Z,107.97
2019-03-23T08:21:55.561Z,106.25
2019-03-23T08:24:25.762Z,110.32
2019-03-23T08:26:56.071Z,100.07
2019-03-23T08:29:26.347Z,107.03
2019-03-23T08:31:56.605Z,101.12
2019-03-23T08:34:26.878Z,100.58
2019-03-23T08:36:57.124Z,102.22
2019-03-23T08:39:27.406Z,103.50
2019-03-23T08:41:57.659Z,101.05
2019-03-23T08:44:27.939Z,105.87
2019-03-23T08:46:58.295Z,106.72
2019-03-23T08:49:29.588Z,100.97
2019-03-23T08:51:59.904Z,100.62
2019-03-23T08:54:31.213Z,96.50
2019-03-23T08:57:02.547Z,90.97
2019-03-23T08:59:32.789Z,95.65
2019-03-23T09:02:03.107Z,95.57
2019-03-23T09:04:33.375Z,94.37
2019-03-23T09:07:03.808Z,91.85
2019-03-23T09:09:34.124Z,92.88
2019-03-23T09:12:04.471Z,84.30
2019-03-23T09:14:43.257Z,87.25
2019-03-23T09:17:13.716Z,89.37
2019-03-23T09:19:44.539Z,87.25
2019-03-23T09:22:14.850Z,85.40
2019-03-23T09:24:45.146Z,81.20
2019-03-23T09:27:15.453Z,80.12
2019-03-23T09:29:45.785Z,76.55
2019-03-23T09:32:16.097Z,77.30
2019-03-23T09:34:46.372Z,82.82
2019-03-23T09:37:16.682Z,75.90
2019-03-23T09:39:47.039Z,76.85
2019-03-23T09:42:17.303Z,78.70
2019-03-23T09:44:49.061Z,69.45
2019-03-23T09:47:19.407Z,70.60
2019-03-23T09:49:49.603Z,67.10
2019-03-23T09:52:19.971Z,72.67
2019-03-23T09:54:50.234Z,64.00
2019-03-23T09:57:20.618Z,64.75
2019-03-23T09:59:50.821Z,63.85
2019-03-23T10:02:21.167Z,64.60
2019-03-23T10:04:53.285Z,69.27
2019-03-23T10:07:23.598Z,66.65
2019-03-23T10:09:54.216Z,67.55
2019-03-23T10:12:24.500Z,65.08
2019-03-23T10:14:56.596Z,58.78
2019-03-23T10:17:26.939Z,64.77
2019-03-23T10:19:57.126Z,61.05
2019-03-23T10:22:27.615Z,61.68
2019-03-23T10:24:57.850Z,66.57
2019-03-23T10:27:28.208Z,64.27
2019-03-23T10:29:58.489Z,62.98
2019-03-23T10:32:28.912Z,60.75
2019-03-23T10:34:59.183Z,59.18
2019-03-23T10:37:29.989Z,57.48
2019-03-23T10:40:00.320Z,58.98
2019-03-23T10:42:30.783Z,57.65
2019-03-23T10:45:01.127Z,57.23
2019-03-23T10:47:31.553Z,55.25
2019-03-23T10:50:02.870Z,55.17
2019-03-23T10:52:33.328Z,56.33
2019-03-23T10:55:04.795Z,56.77
2019-03-23T10:57:35.083Z,48.52
2019-03-23T11:00:11.394Z,57.93
2019-03-23T11:02:41.884Z,54.27
2019-03-23T11:05:13.348Z,51.90
2019-03-23T11:07:43.634Z,48.60
2019-03-23T11:10:14.494Z,50.67
2019-03-23T11:12:44.864Z,53.48
2019-03-23T11:15:16.084Z,48.23
2019-03-23T11:17:46.341Z,51.60
2019-03-23T11:20:17.078Z,38.45
2019-03-23T11:22:47.371Z,44.00
2019-03-23T11:25:17.869Z,41.58
2019-03-23T11:27:48.272Z,39.42
2019-03-23T11:30:18.543Z,40.45
2019-03-23T11:32:48.921Z,38.30
2019-03-23T11:35:19.359Z,39.50
2019-03-23T11:37:49.857Z,43.40
2019-03-23T11:40:20.528Z,39.73
2019-03-23T11:42:50.790Z,38.45
2019-03-23T11:45:21.075Z,41.40
2019-03-23T11:47:51.374Z,42.30
2019-03-23T11:50:21.638Z,40.98
2019-03-23T11:52:52.727Z,39.35
2019-03-23T11:55:22.963Z,35.45
2019-03-23T11:57:53.359Z,41.02
2019-03-23T12:00:23.562Z,31.37
2019-03-23T12:02:54.045Z,29.37
2019-03-23T12:05:24.308Z,32.00
2019-03-23T12:07:54.520Z,31.42
2019-03-23T12:10:24.855Z,34.10
2019-03-23T12:12:55.135Z,33.67
2019-03-23T12:15:25.403Z,31.77
2019-03-23T12:17:55.769Z,36.45
2019-03-23T12:20:26.061Z,37.00
2019-03-23T12:22:56.351Z,30.72
2019-03-23T12:25:26.554Z,29.55
2019-03-23T12:27:56.866Z,31.60
2019-03-23T12:30:28.068Z,31.40
2019-03-23T12:32:59.139Z,37.35
2019-03-23T12:35:29.415Z,30.57
2019-03-23T12:37:59.803Z,31.23
2019-03-23T12:40:30.093Z,33.13
2019-03-23T12:43:00.653Z,17.98
2019-03-23T12:45:30.847Z,18.35
2019-03-23T12:48:01.185Z,18.95
2019-03-23T12:50:31.454Z,18.50
2019-03-23T12:53:01.805Z,22.52
2019-03-23T12:55:33.293Z,22.42
2019-03-23T12:58:04.262Z,20.43
2019-03-23T13:00:34.476Z,20.72
2019-03-23T13:03:04.774Z,19.00
2019-03-23T13:05:35.040Z,19.57
2019-03-23T13:08:05.389Z,21.35
2019-03-23T13:10:35.587Z,18.17
2019-03-23T13:13:05.952Z,21.57
2019-03-23T13:15:36.290Z,20.72
2019-03-23T13:18:07.627Z,22.17
2019-03-23T13:20:37.893Z,18.62
2019-03-23T13:23:08.198Z,19.65
2019-03-23T13:25:38.476Z,21.40
2019-03-23T13:28:08.788Z,19.67
2019-03-23T13:30:39.062Z,20.72
2019-03-23T13:33:11.996Z,28.60
2019-03-23T13:35:43.367Z,19.48
2019-03-23T13:38:13.671Z,25.27
2019-03-23T13:40:43.954Z,19.27
2019-03-23T13:43:14.245Z,18.20
2019-03-23T13:45:44.577Z,22.17
2019-03-23T13:48:14.880Z,18.75
2019-03-23T13:50:45.150Z,21.35
2019-03-23T13:53:15.462Z,21.50
2019-03-23T13:55:47.484Z,21.23
2019-03-23T13:58:17.757Z,24.95
2019-03-23T14:00:48.121Z,20.72
2019-03-23T14:03:18.435Z,22.25
2019-03-23T14:05:48.711Z,18.67
2019-03-23T14:08:19.010Z,17.52
2019-03-23T14:10:50.977Z,16.80
2019-03-23T14:13:21.264Z,18.70
2019-03-23T14:15:52.539Z,20.17
2019-03-23T14:18:22.850Z,19.27
2019-03-23T14:20:53.113Z,27.17
2019-03-23T14:23:23.363Z,22.42
2019-03-23T14:25:53.643Z,19.67
2019-03-23T14:28:25.396Z,24.07
2019-03-23T14:30:55.552Z,17.60
2019-03-23T14:33:25.862Z,19.40
2019-03-23T14:35:56.172Z,24.30
2019-03-23T14:38:26.402Z,16.42
2019-03-23T14:40:56.664Z,18.80
2019-03-23T14:43:26.991Z,20.23
2019-03-23T14:45:57.276Z,24.85
2019-03-23T14:48:27.582Z,20.23
2019-03-23T14:50:58.868Z,26.57
2019-03-23T14:53:29.172Z,19.48
2019-03-23T14:55:59.354Z,25.15
2019-03-23T14:58:29.686Z,22.52
2019-03-23T15:01:00.005Z,18.05
2019-03-23T15:03:30.316Z,21.35
2019-03-23T15:06:01.541Z,19.20
2019-03-23T15:08:32.115Z,21.93
2019-03-23T15:11:02.396Z,20.62
2019-03-23T15:13:33.094Z,21.68
2019-03-23T15:16:04.241Z,23.00
2019-03-23T15:18:34.594Z,18.82
2019-03-23T15:21:05.115Z,31.45
2019-03-23T15:23:35.441Z,24.87
2019-03-23T15:26:05.719Z,21.30
2019-03-23T15:28:36.006Z,31.85
2019-03-23T15:31:06.263Z,25.08
2019-03-23T15:33:36.539Z,23.40
2019-03-23T15:36:06.828Z,18.05
2019-03-23T15:38:37.110Z,20.27
2019-03-23T15:41:07.387Z,18.62
2019-03-23T15:43:37.701Z,21.93
2019-03-23T15:46:07.995Z,29.10
2019-03-23T15:48:38.375Z,22.65
2019-03-23T15:51:08.645Z,20.00
2019-03-23T15:53:38.955Z,20.72
2019-03-23T15:56:09.223Z,25.17
2019-03-23T15:58:39.540Z,19.20
2019-03-23T16:01:09.879Z,23.12
2019-03-23T16:03:40.236Z,19.87
2019-03-23T16:06:10.622Z,27.37
2019-03-23T16:08:41.009Z,23.18
2019-03-23T16:11:11.373Z,22.62
2019-03-23T16:13:41.603Z,20.70
2019-03-23T16:16:11.953Z,17.20
2019-03-23T16:18:44.882Z,17.37
2019-03-23T16:21:15.263Z,24.02
2019-03-23T16:23:45.533Z,24.00
2019-03-23T16:26:16.384Z,19.90
2019-03-23T16:28:46.638Z,21.62
2019-03-23T16:31:16.945Z,22.45
2019-03-23T16:33:47.214Z,29.92
2019-03-23T16:36:17.534Z,22.80
2019-03-23T16:38:47.792Z,26.73
2019-03-23T16:41:18.122Z,21.70
2019-03-23T16:43:48.368Z,27.15
2019-03-23T16:46:19.061Z,28.20
2019-03-23T16:48:49.415Z,24.82
2019-03-23T16:51:19.610Z,30.35
2019-03-23T16:53:49.867Z,32.55
2019-03-23T16:56:20.146Z,26.25
2019-03-23T16:58:50.469Z,25.62
2019-03-23T17:01:20.731Z,27.45
2019-03-23T17:03:51.028Z,52.58
2019-03-23T17:06:21.708Z,41.68
2019-03-23T17:08:51.896Z,36.65
2019-03-23T17:11:22.146Z,39.23
2019-03-23T17:13:52.959Z,43.00
2019-03-23T17:16:24.642Z,38.98
2019-03-23T17:18:55.606Z,38.23
2019-03-23T17:21:25.934Z,37.60
2019-03-23T17:23:56.249Z,37.85
2019-03-23T17:26:26.607Z,39.03
2019-03-23T17:28:58.517Z,40.88
2019-03-23T17:31:28.923Z,42.45
2019-03-23T17:33:59.955Z,42.73
2019-03-23T17:36:30.293Z,47.58
2019-03-23T17:39:00.686Z,52.17
2019-03-23T17:41:32.476Z,54.65
2019-03-23T17:44:02.981Z,54.15
2019-03-23T17:46:34.296Z,69.95
2019-03-23T17:49:04.602Z,62.17
2019-03-23T17:51:34.867Z,51.88
2019-03-23T17:54:05.172Z,44.23
2019-03-23T17:56:35.537Z,45.98
2019-03-23T17:59:08.018Z,44.98
2019-03-23T18:01:38.254Z,44.75
2019-03-23T18:04:08.589Z,41.02
2019-03-23T18:06:38.868Z,37.42
2019-03-23T18:09:09.177Z,39.90
2019-03-23T18:11:39.380Z,52.03
2019-03-23T18:14:09.793Z,45.43
2019-03-23T18:16:40.298Z,45.45
2019-03-23T18:19:10.618Z,54.98
2019-03-23T18:21:40.853Z,56.23
2019-03-23T18:24:11.164Z,50.52
2019-03-23T18:26:41.480Z,64.15
2019-03-23T18:29:11.742Z,65.87
2019-03-23T18:31:42.064Z,74.42
2019-03-23T18:34:12.344Z,76.82
2019-03-23T18:36:42.726Z,90.95
2019-03-23T18:39:12.952Z,61.33
2019-03-23T18:41:43.264Z,51.02
2019-03-23T18:44:16.405Z,57.48
2019-03-23T18:46:46.350Z,70.78
2019-03-23T18:49:16.603Z,61.80
2019-03-23T18:51:46.919Z,61.53
2019-03-23T18:54:17.223Z,65.45
2019-03-23T18:56:47.568Z,65.45
2019-03-23T18:59:17.807Z,60.85
2019-03-23T19:01:48.187Z,61.58
2019-03-23T19:04:18.463Z,62.33
2019-03-23T19:06:48.824Z,75.15
2019-03-23T19:09:20.095Z,65.05
2019-03-23T19:11:50.413Z,69.67
2019-03-23T19:14:20.735Z,70.62
2019-03-23T19:16:51.063Z,72.32
2019-03-23T19:19:21.408Z,66.85
2019-03-23T19:21:51.735Z,64.85
2019-03-23T19:24:22.099Z,58.73
2019-03-23T19:26:52.379Z,56.92
2019-03-23T19:29:22.654Z,54.42
2019-03-23T19:31:52.995Z,49.45
2019-03-23T19:34:23.235Z,51.63
2019-03-23T19:36:53.556Z,51.40
2019-03-23T19:39:23.836Z,40.73
2019-03-23T19:41:54.072Z,49.65
2019-03-23T19:44:24.365Z,71.50
2019-03-23T19:46:54.688Z,67.55
2019-03-23T19:49:24.911Z,67.85
2019-03-23T19:51:55.201Z,76.67
2019-03-23T19:54:25.560Z,95.05
2019-03-23T19:56:58.403Z,95.67
2019-03-23T19:59:28.700Z,108.17
2019-03-23T20:01:59.120Z,108.80
2019-03-23T20:04:29.376Z,109.05
2019-03-23T20:06:59.724Z,111.75
2019-03-23T20:09:29.969Z,116.97
2019-03-23T20:12:00.334Z,115.42
2019-03-23T20:14:31.620Z,112.05
2019-03-23T20:17:02.000Z,113.15
2019-03-23T20:19:32.308Z,111.42
2019-03-23T20:22:02.654Z,112.75
2019-03-23T20:24:32.995Z,121.72
2019-03-23T20:27:03.318Z,122.02
2019-03-23T20:29:33.534Z,128.57
2019-03-23T20:32:03.832Z,123.53
2019-03-23T20:34:34.229Z,123.30
2019-03-23T20:37:04.490Z,126.65
2019-03-23T20:39:34.822Z,103.15
2019-03-23T20:42:05.132Z,95.90
2019-03-23T20:44:35.342Z,88.12
2019-03-23T20:47:05.629Z,97.27
2019-03-23T20:49:35.920Z,93.42
2019-03-23T20:52:07.314Z,84.40
2019-03-23T20:54:37.649Z,76.65
2019-03-23T20:57:07.925Z,70.95
2019-03-23T20:59:38.339Z,70.17
2019-03-23T21:02:08.569Z,68.70
2019-03-23T21:04:38.934Z,63.48
2019-03-23T21:07:09.435Z,59.95
2019-03-23T21:09:39.745Z,62.70
2019-03-23T21:12:10.020Z,57.35
2019-03-23T21:14:46.808Z,61.13
2019-03-23T21:17:17.087Z,54.55
2019-03-23T21:19:47.458Z,57.08
2019-03-23T21:22:17.799Z,59.20
2019-03-23T21:24:48.185Z,59.80
2019-03-23T21:27:19.492Z,60.05
2019-03-23T21:29:49.868Z,61.53
2019-03-23T21:32:20.173Z,57.00
2019-03-23T21:34:50.544Z,56.00
2019-03-23T21:37:20.858Z,56.65
2019-03-23T21:39:52.597Z,52.08
2019-03-23T21:42:22.908Z,62.17
2019-03-23T21:44:53.390Z,64.40
2019-03-23T21:47:23.690Z,61.58
2019-03-23T21:49:54.064Z,56.35
2019-03-23T21:52:24.528Z,57.25
2019-03-23T21:54:54.828Z,62.60
2019-03-23T21:57:25.100Z,58.55
2019-03-23T21:59:57.776Z,56.70
2019-03-23T22:02:28.076Z,60.63
2019-03-23T22:04:58.441Z,64.15
2019-03-23T22:07:28.824Z,57.45
2019-03-23T22:09:59.155Z,56.58
2019-03-23T22:12:29.443Z,62.27
2019-03-23T22:14:59.917Z,60.92
2019-03-23T22:17:30.197Z,69.17
2019-03-23T22:20:00.555Z,70.05
2019-03-23T22:22:30.841Z,61.30
2019-03-23T22:25:01.206Z,65.25
2019-03-23T22:27:31.516Z,70.37
2019-03-23T22:30:01.775Z,72.82
2019-03-23T22:32:32.055Z,68.78
2019-03-23T22:35:02.398Z,80.12
2019-03-23T22:37:32.671Z,69.05
2019-03-23T22:40:04.252Z,78.55
2019-03-23T22:42:41.188Z,81.87
2019-03-23T22:45:11.719Z,83.15
2019-03-23T22:47:45.871Z,83.90
2019-03-23T22:50:16.621Z,86.42
2019-03-23T22:52:46.925Z,81.90
2019-03-23T22:55:17.309Z,84.72
2019-03-23T22:57:47.573Z,82.92
2019-03-23T23:00:21.246Z,83.40
2019-03-23T23:02:53.046Z,85.92
2019-03-23T23:05:23.408Z,90.60
2019-03-23T23:07:53.690Z,90.25
2019-03-23T23:10:24.232Z,97.90
2019-03-23T23:12:54.529Z,101.78
2019-03-23T23:15:24.820Z,102.32
2019-03-23T23:17:55.036Z,103.02
2019-03-23T23:20:25.394Z,115.00
2019-03-23T23:22:55.601Z,111.12
2019-03-23T23:25:25.990Z,114.32
2019-03-23T23:27:56.275Z,110.48
2019-03-23T23:30:26.606Z,106.90
2019-03-23T23:32:57.994Z,115.15
2019-03-23T23:35:28.440Z,113.57
2019-03-23T23:37:58.654Z,123.22
2019-03-23T23:40:29.636Z,124.20
2019-03-23T23:43:00.024Z,125.50
2019-03-23T23:45:30.316Z,124.95
2019-03-23T23:48:00.682Z,123.05
2019-03-23T23:50:30.896Z,119.75
2019-03-23T23:53:01.260Z,116.73
2019-03-23T23:55:31.535Z,121.87
2019-03-23T23:58:01.885Z,121.22
